Time;durP1;ratioP1;P1;durP2;ratioP2;P2;SDS_P1;SDS_P2;PMS_P1;PMS_P2;Temp;Humidity;BMP_temperature;BMP_pressure;BME280_temperature;BME280_humidity;BME280_pressure;Samples;Min_cycle;Max_cycle;Signal;HPM_P1;HPM_P2
2021/10/30 00:00:17;;;;;;;;;21.00;19.50;;;;;16.27;67.94;99725.47;2083360;28;47252;-60
2021/10/30 00:01:18;;;;;;;;;20.80;20.00;;;;;16.27;68.10;99725.47;2082919;28;47540;-61
2021/10/30 00:02:18;;;;;;;;;20.67;19.00;;;;;16.28;68.22;99727.19;2083455;28;48191;-60
2021/10/30 00:03:19;;;;;;;;;16.50;16.50;;;;;16.27;68.43;99725.47;2082808;28;46502;-61
2021/10/30 00:04:19;;;;;;;;;21.00;19.50;;;;;16.27;68.25;99720.97;2093995;28;47404;-61
2021/10/30 00:05:20;;;;;;;;;19.50;18.50;;;;;16.28;68.38;99721.84;2091859;28;47836;-61
2021/10/30 00:06:20;;;;;;;;;19.75;19.00;;;;;16.29;68.47;99720.88;2091867;28;45650;-61
2021/10/30 00:07:21;;;;;;;;;20.25;20.25;;;;;16.29;68.30;99718.22;2091842;28;47134;-60
2021/10/30 00:08:21;;;;;;;;;17.00;17.00;;;;;16.29;68.54;99716.38;2091831;28;48094;-61
2021/10/30 00:09:23;;;;;;;;;21.00;19.75;;;;;16.29;68.30;99715.53;2091771;28;47248;-61
2021/10/30 00:10:23;;;;;;;;;20.20;19.80;;;;;16.30;68.15;99706.53;2087237;28;47244;-61
2021/10/30 00:11:24;;;;;;;;;20.25;19.00;;;;;16.30;68.02;99712.75;2084202;28;47299;-60
2021/10/30 00:12:24;;;;;;;;;18.25;18.25;;;;;16.31;67.90;99713.63;2076403;28;48199;-60
2021/10/30 00:13:25;;;;;;;;;16.00;16.00;;;;;16.31;68.05;99702.91;2082947;28;48333;-61
2021/10/30 00:14:26;;;;;;;;;19.80;19.20;;;;;16.31;68.29;99708.25;2086156;28;46693;-60
2021/10/30 00:15:26;;;;;;;;;18.00;17.25;;;;;16.30;67.95;99702.03;2082676;28;48285;-60
2021/10/30 00:16:27;;;;;;;;;22.00;19.50;;;;;16.31;68.18;99701.09;2082865;28;47353;-61
2021/10/30 00:17:27;;;;;;;;;18.50;16.75;;;;;16.31;68.15;99695.72;2091419;28;45396;-60
2021/10/30 00:18:28;;;;;;;;;20.00;18.67;;;;;16.32;68.28;99693.91;2083861;28;48069;-60
2021/10/30 00:19:28;;;;;;;;;19.25;18.00;;;;;16.31;68.40;99697.56;2082763;28;47261;-60
2021/10/30 00:20:29;;;;;;;;;18.75;17.75;;;;;16.32;68.40;99697.47;2082785;28;48436;-61
2021/10/30 00:21:30;;;;;;;;;17.50;17.25;;;;;16.32;68.36;99701.94;2086584;28;47165;-61
2021/10/30 00:22:31;;;;;;;;;20.00;19.80;;;;;16.33;68.15;99692.97;2077282;28;47666;-60
2021/10/30 00:23:32;;;;;;;;;18.60;17.60;;;;;16.33;68.20;99701.84;2076878;28;46424;-61
2021/10/30 00:24:33;;;;;;;;;19.75;18.50;;;;;16.33;68.31;99690.28;2082825;28;47339;-61
2021/10/30 00:25:33;;;;;;;;;16.67;16.67;;;;;16.34;67.86;99689.31;2074568;28;47203;-61
2021/10/30 00:26:34;;;;;;;;;19.33;18.00;;;;;16.35;67.93;99691.03;2082632;28;47109;-61
2021/10/30 00:27:34;;;;;;;;;18.25;16.50;;;;;16.34;67.96;99687.50;2091651;28;47228;-60
2021/10/30 00:28:35;;;;;;;;;17.67;14.67;;;;;16.35;68.47;99689.22;2091622;28;47990;-61
2021/10/30 00:29:35;;;;;;;;;16.00;16.00;;;;;16.35;68.32;99686.53;2091721;28;46303;-60
2021/10/30 00:30:36;;;;;;;;;16.00;16.00;;;;;16.36;68.45;99682.06;2091508;28;46914;-60
2021/10/30 00:31:36;;;;;;;;;14.50;14.50;;;;;16.37;68.23;99684.63;2091801;28;45574;-60
2021/10/30 00:32:37;;;;;;;;;18.00;18.00;;;;;16.37;67.91;99683.78;2091824;28;47205;-61
2021/10/30 00:33:38;;;;;;;;;19.00;18.00;;;;;16.38;68.36;99688.16;2091271;28;47313;-61
2021/10/30 00:34:38;;;;;;;;;15.00;15.00;;;;;16.37;68.33;99689.97;2092832;28;48212;-61
2021/10/30 00:35:39;;;;;;;;;15.67;15.67;;;;;16.38;68.04;99688.16;2090374;28;47372;-61
2021/10/30 00:36:39;;;;;;;;;16.50;16.50;;;;;16.37;68.38;99687.31;2091725;28;45420;-61
2021/10/30 00:37:40;;;;;;;;;18.75;15.50;;;;;16.38;68.01;99680.13;2091434;28;46147;-60
2021/10/30 00:38:40;;;;;;;;;18.00;17.00;;;;;16.38;68.08;99682.81;2091630;28;47907;-61
2021/10/30 00:39:41;;;;;;;;;18.33;17.67;;;;;16.39;68.09;99684.56;2091451;28;46932;-61
2021/10/30 00:40:41;;;;;;;;;19.00;17.00;;;;;16.39;68.32;99680.06;2083766;28;47389;-60
2021/10/30 00:41:49;;;;;;;;;14.67;14.67;;;;;16.40;68.25;99681.78;2084187;28;47327;-61
2021/10/30 00:42:49;;;;;;;;;18.25;17.75;;;;;16.40;67.97;99678.25;2087046;28;47373;-61
2021/10/30 00:43:50;;;;;;;;;13.33;13.33;;;;;16.39;68.09;99680.06;2091332;28;47341;-60
2021/10/30 00:44:50;;;;;;;;;14.67;14.67;;;;;16.40;68.31;99678.25;2082917;28;45358;-61
2021/10/30 00:45:51;;;;;;;;;14.67;13.33;;;;;16.40;68.24;99680.94;2082102;28;48068;-61
2021/10/30 00:46:53;;;;;;;;;17.00;17.00;;;;;16.40;68.23;99680.94;2086334;28;48176;-61
2021/10/30 00:47:53;;;;;;;;;14.25;13.00;;;;;16.40;68.54;99671.06;2086902;28;45239;-60
2021/10/30 00:48:54;;;;;;;;;13.67;13.67;;;;;16.40;68.24;99670.22;2091804;28;47565;-60
2021/10/30 00:49:54;;;;;;;;;12.67;12.67;;;;;16.40;68.32;99668.41;2091454;28;47171;-60
2021/10/30 00:50:58;;;;;;;;;17.67;15.00;;;;;16.41;67.93;99669.25;2082791;28;48008;-60
2021/10/30 00:52:00;;;;;;;;;13.75;13.25;;;;;16.41;67.96;99675.47;2082813;28;47295;-61
2021/10/30 00:53:01;;;;;;;;;17.00;16.50;;;;;16.41;68.19;99663.91;2091623;28;47415;-61
2021/10/30 00:54:02;;;;;;;;;13.75;13.25;;;;;16.39;68.32;99664.00;2082573;28;48196;-60
2021/10/30 00:55:04;;;;;;;;;17.50;15.25;;;;;16.40;68.20;99662.19;2082870;28;47527;-61
2021/10/30 00:56:05;;;;;;;;;10.00;10.00;;;;;16.40;68.31;99662.19;2082310;28;47875;-61
2021/10/30 00:57:07;;;;;;;;;17.00;16.00;;;;;16.40;68.08;99663.03;2082865;28;47681;-61
2021/10/30 00:58:11;;;;;;;;;18.00;15.50;;;;;16.40;68.38;99668.41;2090269;28;47306;-60
2021/10/30 00:59:14;;;;;;;;;12.75;12.75;;;;;16.40;67.97;99656.81;2082587;28;47747;-61
2021/10/30 01:00:15;;;;;;;;;15.00;14.00;;;;;16.40;68.13;99656.81;2083487;28;48184;-61
2021/10/30 01:01:15;;;;;;;;;15.00;15.00;;;;;16.41;68.07;99663.91;2091376;28;48246;-61
2021/10/30 01:02:16;;;;;;;;;15.67;14.33;;;;;16.41;67.84;99659.41;2091556;28;48518;-61
2021/10/30 01:03:16;;;;;;;;;13.00;12.00;;;;;16.40;68.38;99660.38;2082411;28;48209;-61
2021/10/30 01:04:18;;;;;;;;;18.00;16.00;;;;;16.40;68.00;99659.50;2084785;28;48394;-60
2021/10/30 01:05:19;;;;;;;;;16.00;16.00;;;;;16.41;68.19;99659.41;2091455;28;45420;-61
2021/10/30 01:06:20;;;;;;;;;12.33;12.33;;;;;16.41;68.36;99661.22;2091603;28;48283;-61
2021/10/30 01:07:21;;;;;;;;;15.60;15.00;;;;;16.41;68.36;99654.06;2091205;28;47399;-60
2021/10/30 01:08:22;;;;;;;;;14.00;14.00;;;;;16.40;67.95;99649.66;2091634;28;47940;-61
2021/10/30 01:09:23;;;;;;;;;12.00;12.00;;;;;16.40;68.33;99638.94;2082377;28;47878;-60
2021/10/30 01:10:23;;;;;;;;;14.67;14.33;;;;;16.42;68.39;99646.88;2081835;28;48163;-61
2021/10/30 01:11:24;;;;;;;;;12.00;12.00;;;;;16.41;68.42;99637.97;2084981;28;46954;-61
2021/10/30 01:12:24;;;;;;;;;15.67;13.00;;;;;16.42;68.02;99641.53;2090149;28;46689;-61
2021/10/30 01:13:26;;;;;;;;;15.00;14.00;;;;;16.41;68.30;99640.66;2091415;28;47103;-61
2021/10/30 01:14:28;;;;;;;;;11.25;11.00;;;;;16.42;68.57;99634.34;2082611;28;47240;-61
2021/10/30 01:15:29;;;;;;;;;12.00;11.50;;;;;16.42;68.26;99633.50;2074279;28;47455;-60
2021/10/30 01:16:29;;;;;;;;;13.33;13.00;;;;;16.44;68.03;99636.94;2074394;28;47440;-61
2021/10/30 01:17:30;;;;;;;;;16.00;14.67;;;;;16.42;68.52;99625.47;2074190;28;47276;-61
2021/10/30 01:18:30;;;;;;;;;12.00;12.00;;;;;16.43;68.22;99632.53;2078314;28;48140;-61
2021/10/30 01:19:33;;;;;;;;;10.67;10.67;;;;;16.43;68.16;99632.53;2091261;28;48079;-62
2021/10/30 01:20:34;;;;;;;;;11.75;11.75;;;;;16.42;68.41;99629.00;2091671;28;46533;-61
2021/10/30 01:21:36;;;;;;;;;14.67;12.33;;;;;16.43;68.27;99633.38;2082269;28;47866;-61
2021/10/30 01:22:38;;;;;;;;;11.00;11.00;;;;;16.43;68.12;99627.16;2077390;28;47412;-60
2021/10/30 01:23:39;;;;;;;;;11.75;11.50;;;;;16.43;68.55;99629.84;2089378;28;48321;-61
2021/10/30 01:24:40;;;;;;;;;13.33;12.00;;;;;16.42;68.14;99620.97;2091615;28;47213;-61
2021/10/30 01:25:41;;;;;;;;;12.67;11.67;;;;;16.42;68.04;99614.75;2082119;28;47340;-61
2021/10/30 01:26:41;;;;;;;;;11.75;11.75;;;;;16.43;68.39;99624.50;2082722;28;47282;-61
2021/10/30 01:27:45;;;;;;;;;15.33;15.33;;;;;16.43;68.51;99625.34;2082250;28;48297;-61
2021/10/30 01:28:46;;;;;;;;;11.50;10.00;;;;;16.42;68.64;99617.41;2082780;28;48329;-60
2021/10/30 01:29:51;;;;;;;;;11.00;11.00;;;;;16.43;68.40;99611.97;2082228;28;47194;-61
2021/10/30 01:30:51;;;;;;;;;11.50;11.50;;;;;16.42;68.12;99617.41;2082725;28;47396;-61
2021/10/30 01:31:53;;;;;;;;;12.00;12.00;;;;;16.42;68.36;99614.75;2090804;28;46350;-60
2021/10/30 01:33:00;;;;;;;;;12.50;11.00;;;;;16.41;68.53;99608.53;2091693;28;45361;-60
2021/10/30 01:34:08;;;;;;;;;9.50;9.50;;;;;16.41;68.39;99613.88;2091275;28;46174;-61
2021/10/30 01:35:09;;;;;;;;;12.50;12.50;;;;;16.42;68.38;99612.06;2094651;28;45607;-61
2021/10/30 01:36:10;;;;;;;;;10.25;10.25;;;;;16.42;68.18;99607.56;2091181;28;46945;-60
2021/10/30 01:37:11;;;;;;;;;10.33;10.33;;;;;16.41;68.45;99605.84;2091045;28;47943;-61
2021/10/30 01:38:12;;;;;;;;;9.25;9.25;;;;;16.42;68.67;99610.25;2091125;28;46950;-61
2021/10/30 01:39:13;;;;;;;;;9.00;9.00;;;;;16.43;68.28;99611.97;2091077;28;48208;-60
2021/10/30 01:40:14;;;;;;;;;9.75;9.75;;;;;16.42;68.61;99612.06;2087258;28;45160;-61
2021/10/30 01:41:15;;;;;;;;;11.33;8.67;;;;;16.42;68.47;99610.25;2088244;28;48321;-61
2021/10/30 01:42:15;;;;;;;;;9.33;9.33;;;;;16.42;68.45;99601.34;2091233;28;46342;-62
2021/10/30 01:43:17;;;;;;;;;11.33;11.33;;;;;16.43;68.42;99605.75;2094283;28;47612;-61
2021/10/30 01:44:17;;;;;;;;;11.00;11.00;;;;;16.43;68.71;99592.38;2093530;28;47501;-61
2021/10/30 01:45:18;;;;;;;;;10.00;10.00;;;;;16.43;68.59;99600.41;2083838;28;47162;-61
2021/10/30 01:46:20;;;;;;;;;10.00;10.00;;;;;16.43;68.46;99595.91;2075464;28;46684;-61
2021/10/30 01:47:20;;;;;;;;;10.00;10.00;;;;;16.43;68.77;99606.63;2083790;28;47324;-60
2021/10/30 01:48:31;;;;;;;;;10.67;10.67;;;;;16.43;68.63;99592.38;2090449;28;46698;-61
2021/10/30 01:49:31;;;;;;;;;11.00;10.00;;;;;16.43;68.79;99603.94;2092673;28;47295;-60
2021/10/30 01:50:32;;;;;;;;;12.00;12.00;;;;;16.43;68.60;99595.91;2083906;28;46978;-60
2021/10/30 01:51:32;;;;;;;;;9.33;9.33;;;;;16.44;68.66;99594.09;2083757;28;47475;-60
2021/10/30 01:52:33;;;;;;;;;10.00;10.00;;;;;16.44;68.94;99589.59;2092601;28;45102;-60
2021/10/30 01:53:34;;;;;;;;;11.00;11.00;;;;;16.44;68.58;99594.94;2083744;28;45268;-61
2021/10/30 01:54:35;;;;;;;;;9.75;9.75;;;;;16.42;69.03;99594.19;2083921;28;48089;-61
2021/10/30 01:55:38;;;;;;;;;0.00;0.00;;;;;16.44;68.81;99591.41;2088540;28;48520;-60
2021/10/30 01:56:38;;;;;;;;;8.75;8.00;;;;;16.43;69.01;99590.53;2092976;28;45312;-61
2021/10/30 01:57:39;;;;;;;;;9.33;9.00;;;;;16.44;69.02;99594.94;2092684;28;48005;-61
2021/10/30 01:58:39;;;;;;;;;10.33;9.67;;;;;16.45;69.10;99585.09;2092843;28;47116;-61
2021/10/30 01:59:40;;;;;;;;;8.00;8.00;;;;;16.45;68.93;99583.25;2092695;28;47102;-60
2021/10/30 02:00:41;;;;;;;;;7.33;7.33;;;;;16.44;68.78;99578.88;2083771;28;45816;-60
2021/10/30 02:01:42;;;;;;;;;8.25;7.75;;;;;16.44;69.02;99580.69;2083735;28;46914;-60
2021/10/30 02:02:43;;;;;;;;;8.00;8.00;;;;;16.43;68.75;99577.16;2092492;28;47097;-60
2021/10/30 02:03:43;;;;;;;;;9.00;9.00;;;;;16.42;68.80;99575.44;2083718;28;45312;-61
2021/10/30 02:04:44;;;;;;;;;10.33;10.33;;;;;16.43;69.15;99574.47;2077578;28;46896;-61
2021/10/30 02:05:44;;;;;;;;;12.00;11.00;;;;;16.43;68.75;99566.44;2083010;28;47497;-60
2021/10/30 02:06:45;;;;;;;;;9.00;8.00;;;;;16.43;69.19;99571.81;2092812;28;47838;-60
2021/10/30 02:07:45;;;;;;;;;8.33;8.33;;;;;16.44;69.31;99572.66;2092482;28;47089;-61
2021/10/30 02:08:46;;;;;;;;;9.33;9.33;;;;;16.44;69.10;99562.81;2092837;28;48103;-61
2021/10/30 02:09:46;;;;;;;;;11.33;10.33;;;;;16.44;68.83;99562.81;2090313;28;46926;-61
2021/10/30 02:10:47;;;;;;;;;11.33;10.33;;;;;16.44;68.88;99565.47;2088286;28;47123;-61
2021/10/30 02:11:48;;;;;;;;;10.50;10.50;;;;;16.44;69.07;99557.44;2077223;28;46993;-60
2021/10/30 02:12:48;;;;;;;;;11.00;11.00;;;;;16.44;69.32;99554.78;2083814;28;47404;-60
2021/10/30 02:13:48;;;;;;;;;11.67;11.67;;;;;16.44;69.04;99553.91;2092396;28;48405;-61
2021/10/30 02:14:49;;;;;;;;;10.00;10.00;;;;;16.45;69.17;99550.28;2090582;28;48450;-60
2021/10/30 02:15:50;;;;;;;;;10.33;9.67;;;;;16.44;68.93;99546.75;2089938;28;47001;-60
2021/10/30 02:16:51;;;;;;;;;13.25;13.25;;;;;16.44;68.93;99546.75;2083754;28;48459;-61
2021/10/30 02:17:52;;;;;;;;;12.33;10.00;;;;;16.45;68.92;99539.56;2080074;28;47096;-61
2021/10/30 02:18:52;;;;;;;;;11.00;11.00;;;;;16.44;69.15;99535.16;2084542;28;47392;-60
2021/10/30 02:19:53;;;;;;;;;12.33;11.33;;;;;16.46;68.87;99538.59;2084171;28;48153;-60
2021/10/30 02:20:53;;;;;;;;;9.00;9.00;;;;;16.44;68.88;99533.34;2075805;28;47564;-61
2021/10/30 02:21:53;;;;;;;;;14.00;12.33;;;;;16.44;68.91;99530.66;2081863;28;48306;-61
2021/10/30 02:22:54;;;;;;;;;12.00;11.67;;;;;16.44;69.28;99524.47;2088262;28;47619;-61
2021/10/30 02:23:56;;;;;;;;;12.75;12.75;;;;;16.43;69.12;99512.03;2075286;28;48370;-60
2021/10/30 02:24:56;;;;;;;;;12.75;11.75;;;;;16.42;69.20;99508.50;2080806;28;47256;-60
2021/10/30 02:25:57;;;;;;;;;14.25;12.50;;;;;16.42;68.75;99516.53;2083228;28;47584;-60
2021/10/30 02:26:58;;;;;;;;;12.00;12.00;;;;;16.42;68.78;99521.03;2084479;28;48265;-60
2021/10/30 02:27:58;;;;;;;;;14.00;13.80;;;;;16.43;68.70;99520.06;2087573;28;46999;-60
2021/10/30 02:28:59;;;;;;;;;12.25;11.75;;;;;16.42;69.13;99513.00;2093090;28;48100;-61
2021/10/30 02:29:59;;;;;;;;;8.50;8.50;;;;;16.41;69.08;99517.50;2092468;28;48133;-60
2021/10/30 02:31:00;;;;;;;;;13.00;11.75;;;;;16.41;69.10;99514.81;2092748;28;47255;-61
2021/10/30 02:32:02;;;;;;;;;13.00;13.00;;;;;16.41;68.84;99517.50;2083481;28;48252;-61
2021/10/30 02:33:03;;;;;;;;;14.40;13.20;;;;;16.40;69.15;99514.91;2083894;28;47303;-60
2021/10/30 02:34:04;;;;;;;;;12.00;11.80;;;;;16.40;68.96;99514.91;2083517;28;47940;-61
2021/10/30 02:35:04;;;;;;;;;17.75;15.25;;;;;16.40;68.82;99512.25;2090621;28;48209;-60
2021/10/30 02:36:05;;;;;;;;;15.25;15.25;;;;;16.39;69.20;99518.56;2092476;28;47495;-60
2021/10/30 02:37:07;;;;;;;;;12.75;12.75;;;;;16.40;69.38;99512.25;2075528;28;47595;-61
2021/10/30 02:38:08;;;;;;;;;12.00;12.00;;;;;16.40;68.98;99506.88;2075491;28;48227;-61
2021/10/30 02:39:10;;;;;;;;;12.40;12.40;;;;;16.39;69.02;99503.34;2075134;28;46855;-61
2021/10/30 02:40:11;;;;;;;;;13.25;13.25;;;;;16.40;68.87;99507.75;2075227;28;48151;-61
2021/10/30 02:41:12;;;;;;;;;10.67;10.67;;;;;16.39;69.45;99500.66;2073190;28;48523;-60
2021/10/30 02:42:12;;;;;;;;;9.00;9.00;;;;;16.40;68.82;99498.84;2083619;28;47121;-61
2021/10/30 02:43:13;;;;;;;;;13.00;13.00;;;;;16.39;69.17;99500.66;2075166;28;46751;-60
2021/10/30 02:44:13;;;;;;;;;14.25;14.25;;;;;16.39;68.89;99491.78;2071870;28;48285;-60
2021/10/30 02:45:14;;;;;;;;;13.67;13.67;;;;;16.40;69.06;99488.13;2075093;28;47202;-61
2021/10/30 02:46:15;;;;;;;;;15.20;14.80;;;;;16.40;69.36;99486.31;2089466;28;45245;-61
2021/10/30 02:47:16;;;;;;;;;13.25;13.25;;;;;16.40;69.21;99486.31;2089214;28;47383;-60
2021/10/30 02:48:16;;;;;;;;;11.75;11.75;;;;;16.41;69.29;99489.84;2084401;28;47198;-60
2021/10/30 02:49:18;;;;;;;;;11.25;11.25;;;;;16.40;69.08;99491.66;2083906;28;47108;-60
2021/10/30 02:50:19;;;;;;;;;14.40;13.40;;;;;16.41;69.20;99484.50;2084259;28;47361;-61
2021/10/30 02:51:20;;;;;;;;;12.00;12.00;;;;;16.41;69.03;99482.69;2083957;28;48331;-60
2021/10/30 02:52:20;;;;;;;;;12.00;12.00;;;;;16.40;68.88;99485.47;2075375;28;48431;-60
2021/10/30 02:53:21;;;;;;;;;11.25;11.25;;;;;16.39;69.16;99481.91;2066940;28;47279;-60
2021/10/30 02:54:21;;;;;;;;;11.75;11.75;;;;;16.39;69.36;99479.25;2075359;28;46983;-60
2021/10/30 02:55:22;;;;;;;;;16.75;14.75;;;;;16.39;69.05;99479.25;2083813;28;48306;-61
2021/10/30 02:56:22;;;;;;;;;11.00;11.00;;;;;16.38;69.35;99480.19;2083954;28;45201;-60
2021/10/30 02:57:23;;;;;;;;;16.00;15.75;;;;;16.38;68.98;99474.81;2083833;28;48218;-61
2021/10/30 02:58:23;;;;;;;;;14.25;14.25;;;;;16.38;68.92;99476.63;2085186;28;46202;-61
2021/10/30 02:59:24;;;;;;;;;14.33;12.67;;;;;16.37;69.40;99475.78;2083986;28;47473;-61
2021/10/30 03:00:24;;;;;;;;;11.33;11.00;;;;;16.36;69.25;99471.38;2084284;28;48854;-61
2021/10/30 03:01:25;;;;;;;;;13.67;11.33;;;;;16.37;69.13;99470.44;2083915;28;46067;-60
2021/10/30 03:02:26;;;;;;;;;13.00;13.00;;;;;16.37;69.13;99470.44;2075447;28;47961;-60
2021/10/30 03:03:26;;;;;;;;;13.33;12.67;;;;;16.36;68.98;99468.72;2066245;28;46518;-60
2021/10/30 03:04:27;;;;;;;;;13.00;13.00;;;;;16.36;68.84;99465.19;2066044;28;48284;-60
2021/10/30 03:05:27;;;;;;;;;11.00;11.00;;;;;16.36;69.27;99463.34;2074956;28;47016;-61
2021/10/30 03:06:28;;;;;;;;;13.33;12.33;;;;;16.36;69.10;99463.34;2083425;28;46945;-60
2021/10/30 03:07:28;;;;;;;;;12.25;12.25;;;;;16.38;69.41;99460.56;2091453;28;47207;-60
2021/10/30 03:08:29;;;;;;;;;11.00;11.00;;;;;16.36;69.26;99449.13;2089587;28;47487;-60
2021/10/30 03:09:29;;;;;;;;;16.25;14.25;;;;;16.36;69.37;99441.94;2091899;28;48249;-60
2021/10/30 03:10:30;;;;;;;;;13.75;13.75;;;;;16.37;68.86;99442.78;2090976;28;47198;-60
2021/10/30 03:11:30;;;;;;;;;11.25;10.75;;;;;16.36;68.92;99436.59;2084653;28;47338;-60
2021/10/30 03:12:31;;;;;;;;;10.50;10.00;;;;;16.36;69.12;99441.94;2091688;28;47999;-60
2021/10/30 03:13:32;;;;;;;;;10.67;10.00;;;;;16.37;68.89;99442.78;2092133;28;47309;-60
2021/10/30 03:14:33;;;;;;;;;12.00;12.00;;;;;16.36;69.15;99436.59;2092218;28;46791;-60
2021/10/30 03:15:33;;;;;;;;;10.67;10.67;;;;;16.36;68.90;99431.22;2092209;28;48033;-60
2021/10/30 03:16:34;;;;;;;;;14.75;12.75;;;;;16.36;68.97;99427.69;2083299;28;46211;-60
2021/10/30 03:17:34;;;;;;;;;11.67;11.67;;;;;16.36;69.11;99425.88;2083229;28;48143;-60
2021/10/30 03:18:35;;;;;;;;;12.33;10.67;;;;;16.35;68.97;99417.94;2092110;28;47317;-60
2021/10/30 03:19:35;;;;;;;;;12.33;10.67;;;;;16.35;68.88;99412.59;2092344;28;48234;-60
2021/10/30 03:20:36;;;;;;;;;11.25;11.25;;;;;16.35;69.03;99413.44;2092310;28;45994;-60
2021/10/30 03:21:37;;;;;;;;;10.67;10.67;;;;;16.35;68.77;99409.91;2092485;28;45273;-60
2021/10/30 03:22:37;;;;;;;;;11.00;11.00;;;;;16.33;69.03;99402.00;2086842;28;48271;-60
2021/10/30 03:23:38;;;;;;;;;12.00;10.00;;;;;16.34;69.25;99400.16;2090075;28;47052;-60
2021/10/30 03:24:39;;;;;;;;;11.00;11.00;;;;;16.33;69.15;99395.78;2083165;28;47880;-60
2021/10/30 03:25:40;;;;;;;;;13.00;12.40;;;;;16.33;69.14;99385.06;2083196;28;47356;-61
2021/10/30 03:26:40;;;;;;;;;13.00;13.00;;;;;16.33;69.06;99393.97;2092285;28;47904;-60
2021/10/30 03:27:41;;;;;;;;;12.00;10.67;;;;;16.33;68.98;99388.59;2092247;28;46753;-60
2021/10/30 03:28:41;;;;;;;;;12.75;12.00;;;;;16.33;68.77;99385.06;2092377;28;47209;-60
2021/10/30 03:29:42;;;;;;;;;9.67;9.67;;;;;16.32;69.02;99394.91;2092206;28;48441;-60
2021/10/30 03:30:43;;;;;;;;;11.33;11.00;;;;;16.33;68.99;99388.59;2083195;28;47239;-60
2021/10/30 03:31:43;;;;;;;;;11.25;10.25;;;;;16.33;68.91;99385.06;2083082;28;48232;-60
2021/10/30 03:32:44;;;;;;;;;11.00;11.00;;;;;16.34;68.95;99384.97;2092125;28;46168;-60
2021/10/30 03:33:45;;;;;;;;;11.67;11.67;;;;;16.34;68.88;99384.09;2091988;28;46459;-60
2021/10/30 03:34:45;;;;;;;;;12.75;10.25;;;;;16.34;68.93;99381.44;2095735;28;47581;-60
2021/10/30 03:35:46;;;;;;;;;10.67;9.33;;;;;16.34;69.30;99378.75;2092189;28;48156;-60
2021/10/30 03:36:46;;;;;;;;;12.00;11.67;;;;;16.32;68.73;99373.50;2092180;28;47296;-61
2021/10/30 03:37:47;;;;;;;;;8.00;8.00;;;;;16.32;68.79;99375.31;2091956;28;47163;-61
2021/10/30 03:38:47;;;;;;;;;11.33;11.33;;;;;16.31;68.54;99377.16;2092140;28;47954;-61
2021/10/30 03:39:48;;;;;;;;;12.00;10.33;;;;;16.30;68.89;99371.91;2090833;28;47217;-61
2021/10/30 03:40:49;;;;;;;;;7.67;7.67;;;;;16.31;68.51;99378.97;2083124;28;48425;-61
2021/10/30 03:41:49;;;;;;;;;12.00;10.50;;;;;16.29;68.94;99376.41;2083172;28;47641;-60
2021/10/30 03:42:50;;;;;;;;;13.00;11.75;;;;;16.30;68.48;99377.25;2089269;28;45181;-60
2021/10/30 03:43:51;;;;;;;;;10.75;10.75;;;;;16.29;68.66;99373.72;2091806;28;48610;-61
2021/10/30 03:44:52;;;;;;;;;9.25;9.25;;;;;16.29;69.02;99371.03;2083329;28;46904;-60
2021/10/30 03:45:53;;;;;;;;;10.33;10.33;;;;;16.29;68.52;99367.50;2081779;28;48663;-60
2021/10/30 03:46:53;;;;;;;;;11.00;11.00;;;;;16.29;68.85;99367.50;2087959;28;46067;-61
2021/10/30 03:47:54;;;;;;;;;13.67;10.67;;;;;16.28;68.66;99361.28;2090821;28;48202;-60
2021/10/30 03:48:54;;;;;;;;;8.67;8.67;;;;;16.28;68.80;99360.44;2083552;28;46328;-60
2021/10/30 03:49:55;;;;;;;;;12.67;12.67;;;;;16.27;68.46;99367.59;2083026;28;47917;-60
2021/10/30 03:50:55;;;;;;;;;10.00;10.00;;;;;16.27;68.56;99358.72;2080790;28;47376;-60
2021/10/30 03:51:56;;;;;;;;;12.33;10.33;;;;;16.27;68.59;99361.41;2082921;28;48098;-60
2021/10/30 03:52:57;;;;;;;;;11.33;11.33;;;;;16.26;68.80;99357.88;2092186;28;48398;-60
2021/10/30 03:53:57;;;;;;;;;11.00;11.00;;;;;16.27;68.75;99356.03;2084348;28;47344;-61
2021/10/30 03:54:58;;;;;;;;;8.00;8.00;;;;;16.27;68.68;99359.56;2083309;28;47259;-60
2021/10/30 03:55:58;;;;;;;;;10.67;10.33;;;;;16.27;68.63;99356.03;2082617;28;47382;-61
2021/10/30 03:56:59;;;;;;;;;10.33;10.33;;;;;16.27;68.40;99361.41;2083371;28;47557;-61
2021/10/30 03:57:59;;;;;;;;;9.33;9.33;;;;;16.26;68.52;99356.97;2089800;28;46991;-60
2021/10/30 03:59:00;;;;;;;;;9.67;9.33;;;;;16.26;68.75;99363.22;2092222;28;46056;-61
2021/10/30 04:00:00;;;;;;;;;9.67;9.67;;;;;16.27;68.48;99358.72;2093086;28;47163;-61
2021/10/30 04:01:01;;;;;;;;;11.67;10.67;;;;;16.27;68.32;99361.41;2092115;28;47728;-61
2021/10/30 04:02:04;;;;;;;;;9.67;9.67;;;;;16.26;68.76;99363.22;2092911;28;46494;-60
2021/10/30 04:03:05;;;;;;;;;9.75;9.50;;;;;16.27;68.84;99362.25;2091980;28;47261;-61
2021/10/30 04:04:06;;;;;;;;;12.00;10.75;;;;;16.27;68.30;99353.38;2094144;28;48163;-61
2021/10/30 04:05:08;;;;;;;;;12.67;12.67;;;;;16.27;68.50;99366.75;2083061;28;46041;-61
2021/10/30 04:06:08;;;;;;;;;10.50;10.25;;;;;16.26;68.62;99360.53;2083272;28;48413;-61
2021/10/30 04:07:09;;;;;;;;;11.00;11.00;;;;;16.26;68.68;99365.91;2091840;28;47396;-60
2021/10/30 04:08:13;;;;;;;;;10.00;10.00;;;;;16.26;68.31;99357.88;2082163;28;46551;-60
2021/10/30 04:09:13;;;;;;;;;8.50;8.50;;;;;16.25;68.64;99357.94;2075234;28;47728;-60
2021/10/30 04:10:14;;;;;;;;;9.00;9.00;;;;;16.26;68.56;99356.97;2082188;28;48194;-60
2021/10/30 04:11:15;;;;;;;;;9.00;9.00;;;;;16.26;68.64;99359.66;2086668;28;47347;-60
2021/10/30 04:12:15;;;;;;;;;9.33;9.33;;;;;16.25;68.50;99352.59;2080611;28;47585;-61
2021/10/30 04:13:16;;;;;;;;;9.67;8.67;;;;;16.25;68.28;99356.13;2083138;28;46268;-60
2021/10/30 04:14:17;;;;;;;;;10.00;10.00;;;;;16.25;68.51;99365.97;2091928;28;46252;-60
2021/10/30 04:15:18;;;;;;;;;10.75;9.50;;;;;16.25;68.46;99355.25;2091982;28;45518;-60
2021/10/30 04:16:18;;;;;;;;;9.00;8.33;;;;;16.26;68.36;99348.94;2079232;28;48222;-60
2021/10/30 04:17:19;;;;;;;;;8.33;8.33;;;;;16.25;68.73;99348.09;2081969;28;47195;-60
2021/10/30 04:18:19;;;;;;;;;10.00;10.00;;;;;16.26;68.35;99356.97;2091986;28;48113;-60
2021/10/30 04:19:19;;;;;;;;;10.00;10.00;;;;;16.24;68.41;99349.06;2091804;28;46252;-60
2021/10/30 04:20:20;;;;;;;;;9.33;9.00;;;;;16.24;68.42;99353.53;2092004;28;47472;-61
2021/10/30 04:21:21;;;;;;;;;10.33;8.33;;;;;16.26;68.21;99356.97;2082870;28;46054;-60
2021/10/30 04:22:21;;;;;;;;;8.67;7.33;;;;;16.24;68.24;99350.88;2079973;28;47198;-60
2021/10/30 04:23:22;;;;;;;;;9.00;8.00;;;;;16.24;68.48;99350.88;2087873;28;46677;-60
2021/10/30 04:24:22;;;;;;;;;8.00;8.00;;;;;16.23;68.22;99352.69;2092089;28;47683;-60
2021/10/30 04:25:23;;;;;;;;;9.00;7.33;;;;;16.23;68.39;99350.00;2091498;28;47366;-61
2021/10/30 04:26:24;;;;;;;;;7.00;6.67;;;;;16.24;68.25;99349.06;2082786;28;47131;-60
2021/10/30 04:27:24;;;;;;;;;8.25;8.25;;;;;16.25;68.15;99352.59;2082800;28;47621;-60
2021/10/30 04:28:25;;;;;;;;;7.33;7.00;;;;;16.24;68.54;99351.72;2090016;28;47289;-60
2021/10/30 04:29:26;;;;;;;;;8.00;8.00;;;;;16.26;68.37;99351.63;2082576;28;47129;-60
2021/10/30 04:30:27;;;;;;;;;9.25;9.25;;;;;16.25;68.15;99353.44;2082969;28;48182;-60
2021/10/30 04:31:29;;;;;;;;;8.75;8.00;;;;;16.26;68.24;99360.53;2091661;28;47282;-60
2021/10/30 04:32:30;;;;;;;;;7.00;7.00;;;;;16.26;68.52;99356.97;2091535;28;48396;-60
2021/10/30 04:33:31;;;;;;;;;8.00;8.00;;;;;16.26;68.12;99357.88;2091496;28;48118;-60
2021/10/30 04:34:50;;;;;;;;;8.25;8.25;;;;;16.26;67.99;99360.53;2094137;28;48614;-60
2021/10/30 04:35:50;;;;;;;;;10.00;8.25;;;;;16.25;68.15;99356.13;2091792;28;45553;-60
2021/10/30 04:36:56;;;;;;;;;7.33;7.33;;;;;16.26;68.39;99367.69;2091961;28;47589;-60
2021/10/30 04:37:56;;;;;;;;;8.25;8.25;;;;;16.27;68.28;99366.75;2091549;28;47623;-60
2021/10/30 04:38:59;;;;;;;;;9.00;9.00;;;;;16.27;68.52;99364.06;2083095;28;47602;-60
2021/10/30 04:40:01;;;;;;;;;9.00;8.50;;;;;16.26;68.36;99357.88;2082168;28;45243;-60
2021/10/30 04:41:01;;;;;;;;;11.00;11.00;;;;;16.28;68.10;99363.97;2082953;28;45590;-60
2021/10/30 04:42:02;;;;;;;;;10.00;10.00;;;;;16.28;68.08;99368.47;2079119;28;48147;-60